sensor_id;sensor_type;location;lat;lon;timestamp;P1;durP1;ratioP1;P2;durP2;ratioP2
54452;SDS011;40363;52.270;10.546;2022-08-19T00:01:24;11.77;;;8.40;;
54452;SDS011;40363;52.270;10.546;2022-08-19T00:03:54;12.75;;;7.68;;
54452;SDS011;40363;52.270;10.546;2022-08-19T00:06:22;9.00;;;7.30;;
54452;SDS011;40363;52.270;10.546;2022-08-19T00:08:49;9.85;;;7.53;;
54452;SDS011;40363;52.270;10.546;2022-08-19T00:11:16;10.82;;;7.40;;
54452;SDS011;40363;52.270;10.546;2022-08-19T00:13:43;9.90;;;6.97;;
54452;SDS011;40363;52.270;10.546;2022-08-19T00:16:10;8.63;;;7.20;;
54452;SDS011;40363;52.270;10.546;2022-08-19T00:18:37;10.57;;;7.53;;
54452;SDS011;40363;52.270;10.546;2022-08-19T00:21:04;9.73;;;7.10;;
54452;SDS011;40363;52.270;10.546;2022-08-19T00:23:33;8.43;;;7.22;;
54452;SDS011;40363;52.270;10.546;2022-08-19T00:26:01;10.40;;;6.57;;
54452;SDS011;40363;52.270;10.546;2022-08-19T00:28:30;11.05;;;7.85;;
54452;SDS011;40363;52.270;10.546;2022-08-19T00:30:56;14.18;;;7.53;;
54452;SDS011;40363;52.270;10.546;2022-08-19T00:33:27;9.93;;;6.85;;
54452;SDS011;40363;52.270;10.546;2022-08-19T00:35:54;12.00;;;7.22;;
54452;SDS011;40363;52.270;10.546;2022-08-19T00:38:21;11.05;;;7.13;;
54452;SDS011;40363;52.270;10.546;2022-08-19T00:40:49;10.40;;;6.85;;
54452;SDS011;40363;52.270;10.546;2022-08-19T00:43:18;10.25;;;6.57;;
54452;SDS011;40363;52.270;10.546;2022-08-19T00:45:46;9.65;;;6.57;;
54452;SDS011;40363;52.270;10.546;2022-08-19T00:48:14;10.43;;;7.82;;
54452;SDS011;40363;52.270;10.546;2022-08-19T00:50:42;12.38;;;7.68;;
54452;SDS011;40363;52.270;10.546;2022-08-19T00:53:10;10.02;;;6.50;;
54452;SDS011;40363;52.270;10.546;2022-08-19T00:55:39;11.63;;;7.22;;
54452;SDS011;40363;52.270;10.546;2022-08-19T00:58:10;8.85;;;7.25;;
54452;SDS011;40363;52.270;10.546;2022-08-19T01:00:39;11.18;;;7.05;;
54452;SDS011;40363;52.270;10.546;2022-08-19T01:03:07;8.68;;;6.82;;
54452;SDS011;40363;52.270;10.546;2022-08-19T01:05:35;10.80;;;6.97;;
54452;SDS011;40363;52.270;10.546;2022-08-19T01:08:04;12.52;;;7.95;;
54452;SDS011;40363;52.270;10.546;2022-08-19T01:10:33;9.10;;;6.15;;
54452;SDS011;40363;52.270;10.546;2022-08-19T01:13:03;10.63;;;6.60;;
54452;SDS011;40363;52.270;10.546;2022-08-19T01:15:32;8.88;;;6.68;;
54452;SDS011;40363;52.270;10.546;2022-08-19T01:18:04;9.27;;;6.72;;
54452;SDS011;40363;52.270;10.546;2022-08-19T01:20:33;10.45;;;6.60;;
54452;SDS011;40363;52.270;10.546;2022-08-19T01:23:02;9.18;;;6.35;;
54452;SDS011;40363;52.270;10.546;2022-08-19T01:25:30;9.13;;;5.88;;
54452;SDS011;40363;52.270;10.546;2022-08-19T01:27:58;11.48;;;6.97;;
54452;SDS011;40363;52.270;10.546;2022-08-19T01:30:26;11.63;;;6.30;;
54452;SDS011;40363;52.270;10.546;2022-08-19T01:32:54;9.77;;;7.05;;
54452;SDS011;40363;52.270;10.546;2022-08-19T01:35:22;11.90;;;6.50;;
54452;SDS011;40363;52.270;10.546;2022-08-19T01:37:52;9.02;;;6.50;;
54452;SDS011;40363;52.270;10.546;2022-08-19T01:40:23;7.78;;;5.68;;
54452;SDS011;40363;52.270;10.546;2022-08-19T01:42:53;9.95;;;6.93;;
54452;SDS011;40363;52.270;10.546;2022-08-19T01:45:20;7.65;;;5.43;;
54452;SDS011;40363;52.270;10.546;2022-08-19T01:47:48;10.05;;;6.75;;
54452;SDS011;40363;52.270;10.546;2022-08-19T01:50:15;8.00;;;6.25;;
54452;SDS011;40363;52.270;10.546;2022-08-19T01:52:43;12.05;;;6.90;;
54452;SDS011;40363;52.270;10.546;2022-08-19T01:55:11;7.13;;;5.97;;
54452;SDS011;40363;52.270;10.546;2022-08-19T01:57:43;9.23;;;7.13;;
54452;SDS011;40363;52.270;10.546;2022-08-19T02:00:13;11.82;;;6.60;;
54452;SDS011;40363;52.270;10.546;2022-08-19T02:02:41;9.25;;;6.22;;
54452;SDS011;40363;52.270;10.546;2022-08-19T02:05:08;8.80;;;6.15;;
54452;SDS011;40363;52.270;10.546;2022-08-19T02:07:36;9.73;;;5.85;;
54452;SDS011;40363;52.270;10.546;2022-08-19T02:10:03;8.20;;;5.63;;
54452;SDS011;40363;52.270;10.546;2022-08-19T02:12:32;8.23;;;6.05;;
54452;SDS011;40363;52.270;10.546;2022-08-19T02:15:02;12.40;;;6.85;;
54452;SDS011;40363;52.270;10.546;2022-08-19T02:17:29;11.75;;;7.03;;
54452;SDS011;40363;52.270;10.546;2022-08-19T02:19:57;9.55;;;6.43;;
54452;SDS011;40363;52.270;10.546;2022-08-19T02:22:23;11.38;;;7.00;;
54452;SDS011;40363;52.270;10.546;2022-08-19T02:24:50;9.05;;;6.22;;
54452;SDS011;40363;52.270;10.546;2022-08-19T02:27:17;9.32;;;6.32;;
54452;SDS011;40363;52.270;10.546;2022-08-19T02:29:45;9.57;;;6.18;;
54452;SDS011;40363;52.270;10.546;2022-08-19T02:32:14;11.18;;;6.43;;
54452;SDS011;40363;52.270;10.546;2022-08-19T02:34:41;9.35;;;6.10;;
54452;SDS011;40363;52.270;10.546;2022-08-19T02:37:07;9.90;;;6.22;;
54452;SDS011;40363;52.270;10.546;2022-08-19T02:39:55;9.07;;;6.25;;
54452;SDS011;40363;52.270;10.546;2022-08-19T02:42:20;9.35;;;6.28;;
54452;SDS011;40363;52.270;10.546;2022-08-19T02:44:47;9.95;;;6.05;;
54452;SDS011;40363;52.270;10.546;2022-08-19T02:47:15;13.05;;;6.53;;
54452;SDS011;40363;52.270;10.546;2022-08-19T02:49:43;8.60;;;5.85;;
54452;SDS011;40363;52.270;10.546;2022-08-19T02:52:10;11.00;;;6.30;;
54452;SDS011;40363;52.270;10.546;2022-08-19T02:54:37;10.25;;;6.20;;
54452;SDS011;40363;52.270;10.546;2022-08-19T02:57:04;11.15;;;5.90;;
54452;SDS011;40363;52.270;10.546;2022-08-19T02:59:31;11.55;;;6.32;;
54452;SDS011;40363;52.270;10.546;2022-08-19T03:01:58;13.85;;;6.60;;
54452;SDS011;40363;52.270;10.546;2022-08-19T03:04:26;11.70;;;6.43;;
54452;SDS011;40363;52.270;10.546;2022-08-19T03:06:54;11.10;;;6.78;;
54452;SDS011;40363;52.270;10.546;2022-08-19T03:09:21;10.30;;;6.07;;
54452;SDS011;40363;52.270;10.546;2022-08-19T03:11:48;12.85;;;6.45;;
54452;SDS011;40363;52.270;10.546;2022-08-19T03:14:15;12.63;;;6.15;;
54452;SDS011;40363;52.270;10.546;2022-08-19T03:16:43;13.98;;;6.45;;
54452;SDS011;40363;52.270;10.546;2022-08-19T03:19:13;9.32;;;6.93;;
54452;SDS011;40363;52.270;10.546;2022-08-19T03:21:43;11.05;;;6.25;;
54452;SDS011;40363;52.270;10.546;2022-08-19T03:24:11;10.50;;;6.00;;
54452;SDS011;40363;52.270;10.546;2022-08-19T03:26:39;7.43;;;6.47;;
54452;SDS011;40363;52.270;10.546;2022-08-19T03:29:06;10.45;;;6.25;;
54452;SDS011;40363;52.270;10.546;2022-08-19T03:31:33;9.75;;;6.80;;
54452;SDS011;40363;52.270;10.546;2022-08-19T03:34:00;10.07;;;6.97;;
54452;SDS011;40363;52.270;10.546;2022-08-19T03:36:27;12.25;;;6.97;;
54452;SDS011;40363;52.270;10.546;2022-08-19T03:38:57;9.52;;;6.38;;
54452;SDS011;40363;52.270;10.546;2022-08-19T03:41:25;10.20;;;6.65;;
54452;SDS011;40363;52.270;10.546;2022-08-19T03:43:54;10.13;;;6.40;;
54452;SDS011;40363;52.270;10.546;2022-08-19T03:46:22;9.93;;;6.15;;
54452;SDS011;40363;52.270;10.546;2022-08-19T03:48:50;9.05;;;6.47;;
54452;SDS011;40363;52.270;10.546;2022-08-19T03:51:19;9.82;;;5.85;;
54452;SDS011;40363;52.270;10.546;2022-08-19T03:53:47;10.23;;;6.65;;
54452;SDS011;40363;52.270;10.546;2022-08-19T03:56:16;9.07;;;5.65;;
54452;SDS011;40363;52.270;10.546;2022-08-19T03:58:43;11.15;;;6.75;;
54452;SDS011;40363;52.270;10.546;2022-08-19T04:01:11;12.50;;;6.00;;
54452;SDS011;40363;52.270;10.546;2022-08-19T04:03:43;8.40;;;6.10;;
54452;SDS011;40363;52.270;10.546;2022-08-19T04:06:11;12.30;;;6.15;;
54452;SDS011;40363;52.270;10.546;2022-08-19T04:08:39;11.60;;;6.53;;
54452;SDS011;40363;52.270;10.546;2022-08-19T04:11:07;11.70;;;7.05;;
54452;SDS011;40363;52.270;10.546;2022-08-19T04:13:35;8.07;;;6.15;;
54452;SDS011;40363;52.270;10.546;2022-08-19T04:16:02;11.80;;;6.97;;
54452;SDS011;40363;52.270;10.546;2022-08-19T04:18:30;9.00;;;6.70;;
54452;SDS011;40363;52.270;10.546;2022-08-19T04:20:57;12.57;;;7.55;;
54452;SDS011;40363;52.270;10.546;2022-08-19T04:23:25;10.73;;;6.80;;
54452;SDS011;40363;52.270;10.546;2022-08-19T04:25:53;14.90;;;7.38;;
54452;SDS011;40363;52.270;10.546;2022-08-19T04:28:20;12.07;;;7.13;;
54452;SDS011;40363;52.270;10.546;2022-08-19T04:30:49;14.55;;;6.95;;
54452;SDS011;40363;52.270;10.546;2022-08-19T04:33:18;11.32;;;6.72;;
54452;SDS011;40363;52.270;10.546;2022-08-19T04:35:48;11.18;;;6.88;;
54452;SDS011;40363;52.270;10.546;2022-08-19T04:38:16;10.25;;;6.75;;
54452;SDS011;40363;52.270;10.546;2022-08-19T04:40:50;11.70;;;6.70;;
54452;SDS011;40363;52.270;10.546;2022-08-19T04:43:40;8.73;;;6.35;;
54452;SDS011;40363;52.270;10.546;2022-08-19T04:46:11;10.57;;;6.65;;
54452;SDS011;40363;52.270;10.546;2022-08-19T04:48:39;11.27;;;6.38;;
54452;SDS011;40363;52.270;10.546;2022-08-19T04:51:07;10.27;;;6.63;;
54452;SDS011;40363;52.270;10.546;2022-08-19T04:53:37;9.40;;;6.10;;
54452;SDS011;40363;52.270;10.546;2022-08-19T04:56:05;10.13;;;6.07;;
54452;SDS011;40363;52.270;10.546;2022-08-19T04:58:33;10.88;;;5.80;;
54452;SDS011;40363;52.270;10.546;2022-08-19T05:01:01;14.77;;;6.72;;
54452;SDS011;40363;52.270;10.546;2022-08-19T05:03:29;9.02;;;5.75;;
54452;SDS011;40363;52.270;10.546;2022-08-19T05:05:58;11.95;;;6.05;;
54452;SDS011;40363;52.270;10.546;2022-08-19T05:08:29;11.20;;;6.03;;
54452;SDS011;40363;52.270;10.546;2022-08-19T05:10:56;10.10;;;5.82;;
54452;SDS011;40363;52.270;10.546;2022-08-19T05:13:23;14.05;;;6.30;;
54452;SDS011;40363;52.270;10.546;2022-08-19T05:15:53;11.35;;;6.05;;
54452;SDS011;40363;52.270;10.546;2022-08-19T05:18:20;9.85;;;6.55;;
54452;SDS011;40363;52.270;10.546;2022-08-19T05:21:06;10.30;;;7.03;;
54452;SDS011;40363;52.270;10.546;2022-08-19T05:23:51;12.75;;;6.63;;
54452;SDS011;40363;52.270;10.546;2022-08-19T05:26:18;8.98;;;5.78;;
54452;SDS011;40363;52.270;10.546;2022-08-19T05:28:44;9.43;;;6.15;;
54452;SDS011;40363;52.270;10.546;2022-08-19T05:31:11;11.80;;;6.60;;
54452;SDS011;40363;52.270;10.546;2022-08-19T05:33:38;9.93;;;5.38;;
54452;SDS011;40363;52.270;10.546;2022-08-19T05:36:07;13.98;;;6.65;;
54452;SDS011;40363;52.270;10.546;2022-08-19T05:38:34;12.07;;;5.82;;
54452;SDS011;40363;52.270;10.546;2022-08-19T05:41:05;9.82;;;5.38;;
54452;SDS011;40363;52.270;10.546;2022-08-19T05:43:33;8.25;;;5.10;;
54452;SDS011;40363;52.270;10.546;2022-08-19T05:46:00;9.30;;;5.00;;
54452;SDS011;40363;52.270;10.546;2022-08-19T05:48:26;8.90;;;5.65;;
54452;SDS011;40363;52.270;10.546;2022-08-19T05:50:53;11.73;;;6.47;;
54452;SDS011;40363;52.270;10.546;2022-08-19T05:53:21;12.07;;;6.72;;
54452;SDS011;40363;52.270;10.546;2022-08-19T05:55:47;11.15;;;6.85;;
54452;SDS011;40363;52.270;10.546;2022-08-19T05:58:14;8.90;;;5.68;;
54452;SDS011;40363;52.270;10.546;2022-08-19T06:00:42;11.55;;;6.13;;
54452;SDS011;40363;52.270;10.546;2022-08-19T06:03:09;9.40;;;6.03;;
54452;SDS011;40363;52.270;10.546;2022-08-19T06:05:36;9.57;;;5.95;;
54452;SDS011;40363;52.270;10.546;2022-08-19T06:08:02;10.60;;;5.80;;
54452;SDS011;40363;52.270;10.546;2022-08-19T06:10:31;9.70;;;5.70;;
54452;SDS011;40363;52.270;10.546;2022-08-19T06:12:58;8.98;;;5.95;;
54452;SDS011;40363;52.270;10.546;2022-08-19T06:15:24;11.55;;;6.43;;
54452;SDS011;40363;52.270;10.546;2022-08-19T06:17:53;9.13;;;6.57;;
54452;SDS011;40363;52.270;10.546;2022-08-19T06:20:19;11.45;;;6.38;;
54452;SDS011;40363;52.270;10.546;2022-08-19T06:22:49;11.23;;;5.90;;
54452;SDS011;40363;52.270;10.546;2022-08-19T06:25:16;9.38;;;5.53;;
54452;SDS011;40363;52.270;10.546;2022-08-19T06:27:44;8.13;;;5.75;;
54452;SDS011;40363;52.270;10.546;2022-08-19T06:30:12;8.40;;;6.05;;
54452;SDS011;40363;52.270;10.546;2022-08-19T06:32:39;12.50;;;6.63;;
54452;SDS011;40363;52.270;10.546;2022-08-19T06:35:06;10.85;;;6.15;;
54452;SDS011;40363;52.270;10.546;2022-08-19T06:37:33;11.98;;;5.63;;
54452;SDS011;40363;52.270;10.546;2022-08-19T06:40:00;8.35;;;4.90;;
54452;SDS011;40363;52.270;10.546;2022-08-19T06:42:28;8.40;;;4.80;;
54452;SDS011;40363;52.270;10.546;2022-08-19T06:44:57;7.50;;;4.93;;
54452;SDS011;40363;52.270;10.546;2022-08-19T06:47:24;8.07;;;4.60;;
54452;SDS011;40363;52.270;10.546;2022-08-19T06:49:52;7.57;;;4.05;;
54452;SDS011;40363;52.270;10.546;2022-08-19T06:52:20;5.40;;;4.30;;
54452;SDS011;40363;52.270;10.546;2022-08-19T06:54:48;8.60;;;4.75;;
54452;SDS011;40363;52.270;10.546;2022-08-19T06:57:15;6.43;;;4.20;;
54452;SDS011;40363;52.270;10.546;2022-08-19T06:59:42;5.78;;;4.25;;
54452;SDS011;40363;52.270;10.546;2022-08-19T07:02:10;6.88;;;4.63;;
54452;SDS011;40363;52.270;10.546;2022-08-19T07:04:37;5.95;;;4.70;;
54452;SDS011;40363;52.270;10.546;2022-08-19T07:07:05;7.80;;;4.10;;
54452;SDS011;40363;52.270;10.546;2022-08-19T07:09:35;6.38;;;4.32;;
54452;SDS011;40363;52.270;10.546;2022-08-19T07:12:04;7.07;;;3.97;;
54452;SDS011;40363;52.270;10.546;2022-08-19T07:14:32;7.90;;;4.30;;
54452;SDS011;40363;52.270;10.546;2022-08-19T07:17:02;5.47;;;3.80;;
54452;SDS011;40363;52.270;10.546;2022-08-19T07:19:31;5.72;;;3.80;;
54452;SDS011;40363;52.270;10.546;2022-08-19T07:22:03;8.73;;;3.92;;
54452;SDS011;40363;52.270;10.546;2022-08-19T07:24:31;6.03;;;4.43;;
54452;SDS011;40363;52.270;10.546;2022-08-19T07:27:00;6.00;;;4.07;;
54452;SDS011;40363;52.270;10.546;2022-08-19T07:29:29;7.63;;;4.30;;
54452;SDS011;40363;52.270;10.546;2022-08-19T07:31:58;6.72;;;3.92;;
54452;SDS011;40363;52.270;10.546;2022-08-19T07:34:26;7.45;;;3.83;;
54452;SDS011;40363;52.270;10.546;2022-08-19T07:36:56;6.00;;;3.80;;
54452;SDS011;40363;52.270;10.546;2022-08-19T07:39:24;4.55;;;3.75;;
54452;SDS011;40363;52.270;10.546;2022-08-19T07:41:55;6.05;;;4.40;;
54452;SDS011;40363;52.270;10.546;2022-08-19T07:44:25;6.22;;;3.80;;
54452;SDS011;40363;52.270;10.546;2022-08-19T07:46:53;5.55;;;4.05;;
54452;SDS011;40363;52.270;10.546;2022-08-19T07:49:22;4.57;;;3.58;;
54452;SDS011;40363;52.270;10.546;2022-08-19T07:51:50;5.82;;;3.63;;
54452;SDS011;40363;52.270;10.546;2022-08-19T07:54:20;8.02;;;3.70;;
54452;SDS011;40363;52.270;10.546;2022-08-19T07:56:50;5.60;;;3.95;;
54452;SDS011;40363;52.270;10.546;2022-08-19T07:59:17;6.18;;;3.60;;
54452;SDS011;40363;52.270;10.546;2022-08-19T08:01:45;7.00;;;4.57;;
54452;SDS011;40363;52.270;10.546;2022-08-19T08:04:12;5.53;;;3.45;;
54452;SDS011;40363;52.270;10.546;2022-08-19T08:06:57;5.75;;;3.55;;
54452;SDS011;40363;52.270;10.546;2022-08-19T08:09:43;6.60;;;3.80;;
54452;SDS011;40363;52.270;10.546;2022-08-19T08:12:12;5.65;;;3.42;;
54452;SDS011;40363;52.270;10.546;2022-08-19T08:14:41;4.10;;;3.30;;
54452;SDS011;40363;52.270;10.546;2022-08-19T08:17:11;5.80;;;2.95;;
54452;SDS011;40363;52.270;10.546;2022-08-19T08:19:41;7.05;;;3.67;;
54452;SDS011;40363;52.270;10.546;2022-08-19T08:22:09;8.77;;;4.20;;
54452;SDS011;40363;52.270;10.546;2022-08-19T08:25:02;4.45;;;3.33;;
54452;SDS011;40363;52.270;10.546;2022-08-19T08:27:30;4.80;;;3.53;;
54452;SDS011;40363;52.270;10.546;2022-08-19T08:29:57;5.57;;;3.25;;
54452;SDS011;40363;52.270;10.546;2022-08-19T08:32:23;8.65;;;3.65;;
54452;SDS011;40363;52.270;10.546;2022-08-19T08:34:50;5.97;;;3.35;;
54452;SDS011;40363;52.270;10.546;2022-08-19T08:37:18;5.38;;;3.47;;
54452;SDS011;40363;52.270;10.546;2022-08-19T08:39:45;7.10;;;4.15;;
54452;SDS011;40363;52.270;10.546;2022-08-19T08:42:15;4.82;;;3.17;;
54452;SDS011;40363;52.270;10.546;2022-08-19T08:44:48;7.13;;;3.60;;
54452;SDS011;40363;52.270;10.546;2022-08-19T08:47:20;6.70;;;3.47;;
54452;SDS011;40363;52.270;10.546;2022-08-19T08:49:51;6.70;;;4.10;;
54452;SDS011;40363;52.270;10.546;2022-08-19T08:52:24;6.80;;;3.42;;
54452;SDS011;40363;52.270;10.546;2022-08-19T08:54:52;7.38;;;3.40;;
54452;SDS011;40363;52.270;10.546;2022-08-19T08:57:26;5.75;;;3.55;;
54452;SDS011;40363;52.270;10.546;2022-08-19T08:59:58;5.85;;;3.75;;
54452;SDS011;40363;52.270;10.546;2022-08-19T09:02:29;7.80;;;3.25;;
54452;SDS011;40363;52.270;10.546;2022-08-19T09:04:56;5.25;;;3.35;;
54452;SDS011;40363;52.270;10.546;2022-08-19T09:07:25;6.18;;;3.10;;
54452;SDS011;40363;52.270;10.546;2022-08-19T09:10:02;5.05;;;3.53;;
54452;SDS011;40363;52.270;10.546;2022-08-19T09:15:07;4.38;;;3.10;;
54452;SDS011;40363;52.270;10.546;2022-08-19T09:17:36;5.45;;;3.00;;
54452;SDS011;40363;52.270;10.546;2022-08-19T09:20:04;4.90;;;3.10;;
54452;SDS011;40363;52.270;10.546;2022-08-19T09:22:39;7.00;;;3.38;;
54452;SDS011;40363;52.270;10.546;2022-08-19T09:25:09;7.82;;;3.72;;
54452;SDS011;40363;52.270;10.546;2022-08-19T09:27:40;6.68;;;3.17;;
54452;SDS011;40363;52.270;10.546;2022-08-19T09:30:08;5.03;;;2.92;;
54452;SDS011;40363;52.270;10.546;2022-08-19T09:32:38;6.57;;;3.58;;
54452;SDS011;40363;52.270;10.546;2022-08-19T09:35:07;5.13;;;3.30;;
54452;SDS011;40363;52.270;10.546;2022-08-19T09:37:34;6.88;;;3.97;;
54452;SDS011;40363;52.270;10.546;2022-08-19T09:40:01;5.10;;;3.85;;
54452;SDS011;40363;52.270;10.546;2022-08-19T09:42:28;5.53;;;3.25;;
54452;SDS011;40363;52.270;10.546;2022-08-19T09:44:56;7.88;;;4.18;;
54452;SDS011;40363;52.270;10.546;2022-08-19T09:47:23;4.20;;;3.40;;
54452;SDS011;40363;52.270;10.546;2022-08-19T09:49:49;4.30;;;3.72;;
54452;SDS011;40363;52.270;10.546;2022-08-19T09:52:16;6.65;;;3.58;;
54452;SDS011;40363;52.270;10.546;2022-08-19T09:54:45;7.05;;;4.38;;
54452;SDS011;40363;52.270;10.546;2022-08-19T09:57:12;4.88;;;4.10;;
54452;SDS011;40363;52.270;10.546;2022-08-19T09:59:38;6.00;;;4.22;;
54452;SDS011;40363;52.270;10.546;2022-08-19T10:02:07;6.55;;;4.20;;
54452;SDS011;40363;52.270;10.546;2022-08-19T10:04:35;5.80;;;4.38;;
54452;SDS011;40363;52.270;10.546;2022-08-19T10:07:15;6.38;;;4.63;;
54452;SDS011;40363;52.270;10.546;2022-08-19T10:09:42;6.60;;;3.92;;
54452;SDS011;40363;52.270;10.546;2022-08-19T10:12:08;9.68;;;4.30;;
54452;SDS011;40363;52.270;10.546;2022-08-19T10:14:35;8.00;;;4.53;;
54452;SDS011;40363;52.270;10.546;2022-08-19T10:17:02;4.20;;;3.80;;
54452;SDS011;40363;52.270;10.546;2022-08-19T10:19:30;5.38;;;4.20;;
54452;SDS011;40363;52.270;10.546;2022-08-19T10:22:02;5.47;;;4.32;;
54452;SDS011;40363;52.270;10.546;2022-08-19T10:24:30;8.73;;;4.60;;
54452;SDS011;40363;52.270;10.546;2022-08-19T10:26:57;6.32;;;4.68;;
54452;SDS011;40363;52.270;10.546;2022-08-19T10:29:23;6.50;;;4.57;;
54452;SDS011;40363;52.270;10.546;2022-08-19T10:31:53;6.90;;;4.45;;
54452;SDS011;40363;52.270;10.546;2022-08-19T10:34:21;7.18;;;4.40;;
54452;SDS011;40363;52.270;10.546;2022-08-19T10:36:49;6.78;;;4.43;;
54452;SDS011;40363;52.270;10.546;2022-08-19T10:39:16;7.55;;;5.18;;
54452;SDS011;40363;52.270;10.546;2022-08-19T10:41:42;6.93;;;5.00;;
54452;SDS011;40363;52.270;10.546;2022-08-19T10:44:10;6.28;;;4.22;;
54452;SDS011;40363;52.270;10.546;2022-08-19T10:46:39;4.63;;;3.67;;
54452;SDS011;40363;52.270;10.546;2022-08-19T10:49:08;5.82;;;3.75;;
54452;SDS011;40363;52.270;10.546;2022-08-19T10:51:37;6.53;;;3.80;;
54452;SDS011;40363;52.270;10.546;2022-08-19T10:54:23;7.30;;;4.40;;
54452;SDS011;40363;52.270;10.546;2022-08-19T10:57:10;6.22;;;4.13;;
54452;SDS011;40363;52.270;10.546;2022-08-19T10:59:36;5.95;;;3.80;;
54452;SDS011;40363;52.270;10.546;2022-08-19T11:02:05;5.93;;;3.88;;
54452;SDS011;40363;52.270;10.546;2022-08-19T11:04:34;5.60;;;4.80;;
54452;SDS011;40363;52.270;10.546;2022-08-19T11:07:02;5.80;;;4.28;;
54452;SDS011;40363;52.270;10.546;2022-08-19T11:09:31;6.95;;;3.55;;
54452;SDS011;40363;52.270;10.546;2022-08-19T11:12:02;4.22;;;3.83;;
54452;SDS011;40363;52.270;10.546;2022-08-19T11:14:30;6.10;;;4.13;;
54452;SDS011;40363;52.270;10.546;2022-08-19T11:16:57;4.78;;;4.00;;
54452;SDS011;40363;52.270;10.546;2022-08-19T11:19:24;4.88;;;3.67;;
54452;SDS011;40363;52.270;10.546;2022-08-19T11:21:51;8.63;;;4.05;;
54452;SDS011;40363;52.270;10.546;2022-08-19T11:24:19;9.05;;;5.57;;
54452;SDS011;40363;52.270;10.546;2022-08-19T11:26:49;9.13;;;5.32;;
54452;SDS011;40363;52.270;10.546;2022-08-19T11:29:18;7.35;;;5.50;;
54452;SDS011;40363;52.270;10.546;2022-08-19T11:31:47;7.57;;;4.40;;
54452;SDS011;40363;52.270;10.546;2022-08-19T11:34:16;7.55;;;5.03;;
54452;SDS011;40363;52.270;10.546;2022-08-19T11:36:45;7.22;;;4.55;;
54452;SDS011;40363;52.270;10.546;2022-08-19T11:39:15;6.78;;;4.85;;
54452;SDS011;40363;52.270;10.546;2022-08-19T11:41:43;6.15;;;4.50;;
54452;SDS011;40363;52.270;10.546;2022-08-19T11:44:11;6.70;;;4.00;;
54452;SDS011;40363;52.270;10.546;2022-08-19T11:46:39;7.00;;;4.63;;
54452;SDS011;40363;52.270;10.546;2022-08-19T11:49:10;6.30;;;4.43;;
54452;SDS011;40363;52.270;10.546;2022-08-19T11:51:38;5.68;;;4.70;;
54452;SDS011;40363;52.270;10.546;2022-08-19T11:54:07;7.03;;;4.15;;
54452;SDS011;40363;52.270;10.546;2022-08-19T11:56:34;7.10;;;4.38;;
54452;SDS011;40363;52.270;10.546;2022-08-19T11:59:02;6.82;;;5.20;;
54452;SDS011;40363;52.270;10.546;2022-08-19T12:01:30;7.00;;;5.00;;
54452;SDS011;40363;52.270;10.546;2022-08-19T12:03:57;6.55;;;5.05;;
54452;SDS011;40363;52.270;10.546;2022-08-19T12:06:25;10.18;;;5.30;;
54452;SDS011;40363;52.270;10.546;2022-08-19T12:08:54;5.30;;;3.97;;
54452;SDS011;40363;52.270;10.546;2022-08-19T12:11:21;5.13;;;4.30;;
54452;SDS011;40363;52.270;10.546;2022-08-19T12:13:48;6.85;;;5.60;;
54452;SDS011;40363;52.270;10.546;2022-08-19T12:16:16;7.25;;;4.40;;
54452;SDS011;40363;52.270;10.546;2022-08-19T12:18:46;5.30;;;4.10;;
54452;SDS011;40363;52.270;10.546;2022-08-19T12:21:13;6.13;;;4.57;;
54452;SDS011;40363;52.270;10.546;2022-08-19T12:23:40;5.80;;;4.38;;
54452;SDS011;40363;52.270;10.546;2022-08-19T12:26:09;4.55;;;3.58;;
54452;SDS011;40363;52.270;10.546;2022-08-19T12:28:37;4.63;;;3.30;;
54452;SDS011;40363;52.270;10.546;2022-08-19T12:31:04;4.97;;;3.25;;
54452;SDS011;40363;52.270;10.546;2022-08-19T12:33:31;5.03;;;3.55;;
54452;SDS011;40363;52.270;10.546;2022-08-19T12:36:01;4.72;;;3.42;;
54452;SDS011;40363;52.270;10.546;2022-08-19T12:38:30;4.00;;;3.22;;
54452;SDS011;40363;52.270;10.546;2022-08-19T12:40:57;3.92;;;3.13;;
54452;SDS011;40363;52.270;10.546;2022-08-19T12:43:25;4.70;;;3.35;;
54452;SDS011;40363;52.270;10.546;2022-08-19T12:45:55;4.53;;;3.47;;
54452;SDS011;40363;52.270;10.546;2022-08-19T12:48:24;6.07;;;4.45;;
54452;SDS011;40363;52.270;10.546;2022-08-19T12:50:51;4.78;;;3.92;;
54452;SDS011;40363;52.270;10.546;2022-08-19T12:53:19;4.95;;;3.45;;
54452;SDS011;40363;52.270;10.546;2022-08-19T12:55:46;3.72;;;3.38;;
54452;SDS011;40363;52.270;10.546;2022-08-19T12:58:12;4.80;;;3.47;;
54452;SDS011;40363;52.270;10.546;2022-08-19T13:00:39;5.93;;;4.05;;
54452;SDS011;40363;52.270;10.546;2022-08-19T13:03:06;6.00;;;4.30;;
54452;SDS011;40363;52.270;10.546;2022-08-19T13:05:34;4.47;;;3.42;;
54452;SDS011;40363;52.270;10.546;2022-08-19T13:08:01;5.63;;;3.95;;
54452;SDS011;40363;52.270;10.546;2022-08-19T13:10:33;4.65;;;3.50;;
54452;SDS011;40363;52.270;10.546;2022-08-19T13:13:01;4.85;;;3.50;;
54452;SDS011;40363;52.270;10.546;2022-08-19T13:15:32;4.50;;;3.70;;
54452;SDS011;40363;52.270;10.546;2022-08-19T13:18:04;5.83;;;3.20;;
54452;SDS011;40363;52.270;10.546;2022-08-19T13:20:35;5.25;;;4.00;;
54452;SDS011;40363;52.270;10.546;2022-08-19T13:23:10;4.75;;;3.58;;
54452;SDS011;40363;52.270;10.546;2022-08-19T13:28:08;6.10;;;4.03;;
54452;SDS011;40363;52.270;10.546;2022-08-19T13:30:34;6.13;;;3.72;;
54452;SDS011;40363;52.270;10.546;2022-08-19T13:33:19;3.35;;;3.03;;
54452;SDS011;40363;52.270;10.546;2022-08-19T13:35:46;4.75;;;3.83;;
54452;SDS011;40363;52.270;10.546;2022-08-19T13:38:15;4.25;;;3.40;;
54452;SDS011;40363;52.270;10.546;2022-08-19T13:40:45;3.88;;;3.08;;
54452;SDS011;40363;52.270;10.546;2022-08-19T13:43:12;4.63;;;3.67;;
54452;SDS011;40363;52.270;10.546;2022-08-19T13:45:40;4.88;;;3.55;;
54452;SDS011;40363;52.270;10.546;2022-08-19T13:48:07;5.07;;;3.33;;
54452;SDS011;40363;52.270;10.546;2022-08-19T13:50:34;6.15;;;3.58;;
54452;SDS011;40363;52.270;10.546;2022-08-19T13:53:05;4.40;;;4.00;;
54452;SDS011;40363;52.270;10.546;2022-08-19T13:55:33;5.43;;;3.40;;
54452;SDS011;40363;52.270;10.546;2022-08-19T13:58:02;5.82;;;3.53;;
54452;SDS011;40363;52.270;10.546;2022-08-19T14:00:30;6.35;;;4.15;;
54452;SDS011;40363;52.270;10.546;2022-08-19T14:02:58;6.95;;;3.95;;
54452;SDS011;40363;52.270;10.546;2022-08-19T14:05:26;4.18;;;3.53;;
54452;SDS011;40363;52.270;10.546;2022-08-19T14:07:54;5.07;;;3.85;;
54452;SDS011;40363;52.270;10.546;2022-08-19T14:10:21;4.47;;;4.00;;
54452;SDS011;40363;52.270;10.546;2022-08-19T14:12:49;5.00;;;3.60;;
54452;SDS011;40363;52.270;10.546;2022-08-19T14:15:24;4.53;;;3.60;;
54452;SDS011;40363;52.270;10.546;2022-08-19T14:17:51;4.63;;;4.15;;
54452;SDS011;40363;52.270;10.546;2022-08-19T14:20:19;4.47;;;3.58;;
54452;SDS011;40363;52.270;10.546;2022-08-19T14:22:47;8.43;;;4.70;;
54452;SDS011;40363;52.270;10.546;2022-08-19T14:25:15;5.30;;;3.42;;
54452;SDS011;40363;52.270;10.546;2022-08-19T14:27:44;5.22;;;3.72;;
54452;SDS011;40363;52.270;10.546;2022-08-19T14:30:12;5.25;;;3.47;;
54452;SDS011;40363;52.270;10.546;2022-08-19T14:32:41;7.40;;;3.78;;
54452;SDS011;40363;52.270;10.546;2022-08-19T14:35:13;5.47;;;3.75;;
54452;SDS011;40363;52.270;10.546;2022-08-19T14:37:43;3.30;;;3.00;;
54452;SDS011;40363;52.270;10.546;2022-08-19T14:40:12;5.68;;;3.78;;
54452;SDS011;40363;52.270;10.546;2022-08-19T14:42:39;3.78;;;3.38;;
54452;SDS011;40363;52.270;10.546;2022-08-19T14:45:07;5.63;;;4.05;;